createdAt,value
2023-04-19T00:02:25.601Z,16.20
2023-04-19T00:04:53.661Z,16.85
2023-04-19T00:07:21.339Z,15.18
2023-04-19T00:09:48.924Z,16.38
2023-04-19T00:12:17.124Z,18.95
2023-04-19T00:14:44.936Z,16.30
2023-04-19T00:17:12.626Z,15.73
2023-04-19T00:19:40.482Z,18.02
2023-04-19T00:22:08.116Z,16.65
2023-04-19T00:24:35.957Z,15.32
2023-04-19T00:27:03.940Z,17.63
2023-04-19T00:31:59.690Z,17.30
2023-04-19T00:34:27.252Z,18.85
2023-04-19T00:36:58.043Z,16.23
2023-04-19T00:39:25.959Z,17.45
2023-04-19T00:41:53.515Z,19.08
2023-04-19T00:44:21.193Z,17.88
2023-04-19T00:46:48.860Z,17.77
2023-04-19T00:49:18.449Z,16.35
2023-04-19T00:51:47.131Z,17.42
2023-04-19T00:54:15.715Z,17.40
2023-04-19T00:56:45.051Z,17.85
2023-04-19T00:59:14.802Z,16.83
2023-04-19T01:01:43.156Z,16.70
2023-04-19T01:04:11.132Z,16.48
2023-04-19T01:06:40.386Z,16.42
2023-04-19T01:09:08.045Z,15.90
2023-04-19T01:11:35.675Z,15.68
2023-04-19T01:14:03.341Z,14.95
2023-04-19T01:16:30.912Z,16.10
2023-04-19T01:18:58.433Z,17.17
2023-04-19T01:21:29.460Z,14.55
2023-04-19T01:23:57.198Z,15.65
2023-04-19T01:26:25.089Z,17.88
2023-04-19T01:28:52.900Z,16.10
2023-04-19T01:31:20.883Z,17.38
2023-04-19T01:33:48.512Z,15.52
2023-04-19T01:36:16.190Z,14.13
2023-04-19T01:38:44.186Z,17.23
2023-04-19T01:41:11.721Z,15.05
2023-04-19T01:43:39.277Z,16.02
2023-04-19T01:46:06.854Z,14.98
2023-04-19T01:48:34.372Z,16.05
2023-04-19T01:51:02.167Z,14.75
2023-04-19T01:53:29.689Z,16.08
2023-04-19T01:55:57.183Z,16.42
2023-04-19T01:58:27.304Z,15.73
2023-04-19T02:00:55.475Z,15.70
2023-04-19T02:03:23.302Z,15.75
2023-04-19T02:05:50.949Z,15.20
2023-04-19T02:08:21.033Z,14.80
2023-04-19T02:10:48.606Z,13.40
2023-04-19T02:13:16.367Z,14.98
2023-04-19T02:15:43.938Z,16.02
2023-04-19T02:18:11.900Z,16.58
2023-04-19T02:20:40.936Z,15.88
2023-04-19T02:23:08.763Z,17.10
2023-04-19T02:25:36.610Z,15.82
2023-04-19T02:28:04.484Z,17.15
2023-04-19T02:30:32.698Z,16.38
2023-04-19T02:33:00.285Z,15.75
2023-04-19T02:35:28.192Z,15.77
2023-04-19T02:38:03.280Z,17.20
2023-04-19T02:40:31.365Z,16.08
2023-04-19T02:42:59.970Z,15.90
2023-04-19T02:45:28.686Z,17.30
2023-04-19T02:47:56.467Z,16.65
2023-04-19T02:50:24.718Z,17.38
2023-04-19T02:52:53.745Z,15.85
2023-04-19T02:55:23.542Z,15.40
2023-04-19T02:58:00.164Z,15.40
2023-04-19T03:00:28.254Z,16.60
2023-04-19T03:03:05.420Z,18.20
2023-04-19T03:05:34.428Z,19.38
2023-04-19T03:08:01.977Z,19.10
2023-04-19T03:10:29.578Z,19.63
2023-04-19T03:12:57.171Z,19.00
2023-04-19T03:15:25.281Z,18.33
2023-04-19T03:17:53.126Z,15.90
2023-04-19T03:20:22.572Z,15.75
2023-04-19T03:22:51.766Z,17.38
2023-04-19T03:25:19.479Z,17.58
2023-04-19T03:27:53.663Z,17.17
2023-04-19T03:30:35.762Z,18.88
2023-04-19T03:33:03.554Z,17.33
2023-04-19T03:35:32.500Z,18.58
2023-04-19T03:38:08.603Z,19.88
2023-04-19T03:40:38.789Z,19.63
2023-04-19T03:43:07.931Z,17.70
2023-04-19T03:45:36.386Z,18.08
2023-04-19T03:48:04.093Z,18.98
2023-04-19T03:50:32.391Z,20.65
2023-04-19T03:53:00.640Z,18.48
2023-04-19T03:55:28.288Z,21.27
2023-04-19T03:57:55.836Z,20.55
2023-04-19T04:00:35.843Z,18.35
2023-04-19T04:03:04.247Z,18.88
2023-04-19T04:05:32.194Z,18.80
2023-04-19T04:08:01.601Z,16.55
2023-04-19T04:10:29.736Z,19.75
2023-04-19T04:15:31.414Z,20.58
2023-04-19T04:18:00.050Z,19.38
2023-04-19T04:20:27.789Z,19.88
2023-04-19T04:23:02.005Z,20.00
2023-04-19T04:25:33.040Z,18.77
2023-04-19T04:28:06.972Z,19.83
2023-04-19T04:30:35.044Z,18.33
2023-04-19T04:33:04.565Z,14.95
2023-04-19T04:38:17.612Z,20.95
2023-04-19T04:40:55.697Z,20.33
2023-04-19T04:43:24.485Z,20.45
2023-04-19T04:45:52.412Z,19.10
2023-04-19T04:48:20.612Z,19.17
2023-04-19T04:50:48.219Z,20.33
2023-04-19T04:53:16.073Z,21.15
2023-04-19T04:55:46.472Z,19.58
2023-04-19T04:58:15.456Z,16.77
2023-04-19T05:03:21.013Z,22.58
2023-04-19T05:05:55.202Z,20.80
2023-04-19T05:08:26.979Z,20.95
2023-04-19T05:10:59.325Z,18.65
2023-04-19T05:13:31.022Z,18.25
2023-04-19T05:16:00.488Z,19.65
2023-04-19T05:20:57.532Z,21.88
2023-04-19T05:23:28.885Z,20.08
2023-04-19T05:25:57.737Z,20.05
2023-04-19T05:28:28.078Z,15.65
2023-04-19T05:31:09.148Z,20.05
2023-04-19T05:33:45.237Z,15.65
2023-04-19T05:36:12.854Z,20.58
2023-04-19T05:38:40.756Z,21.00
2023-04-19T05:41:08.543Z,19.52
2023-04-19T05:43:36.715Z,20.33
2023-04-19T05:46:06.174Z,18.77
2023-04-19T05:51:20.226Z,22.17
2023-04-19T05:54:03.338Z,18.17
2023-04-19T06:01:29.012Z,17.33
2023-04-19T06:03:56.970Z,19.98
2023-04-19T06:06:25.759Z,18.65
2023-04-19T06:11:31.458Z,17.88
2023-04-19T06:14:06.422Z,20.02
2023-04-19T06:16:35.491Z,19.52
2023-04-19T06:19:03.931Z,18.52
2023-04-19T06:21:33.081Z,20.15
2023-04-19T06:24:01.073Z,19.95
2023-04-19T06:26:28.613Z,16.23
2023-04-19T06:28:56.545Z,17.00
2023-04-19T06:31:24.379Z,19.98
2023-04-19T06:33:52.429Z,20.63
2023-04-19T06:36:20.348Z,16.58
2023-04-19T06:38:48.149Z,16.92
2023-04-19T06:41:16.388Z,19.63
2023-04-19T06:46:14.682Z,21.25
2023-04-19T06:48:42.600Z,18.13
2023-04-19T06:51:10.128Z,20.77
2023-04-19T06:53:38.322Z,19.35
2023-04-19T06:56:06.868Z,20.65
2023-04-19T06:58:35.278Z,19.25
2023-04-19T07:01:04.718Z,16.58
2023-04-19T07:03:32.980Z,19.88
2023-04-19T07:08:42.339Z,19.13
2023-04-19T07:11:16.455Z,23.17
2023-04-19T07:13:44.558Z,18.60
2023-04-19T07:18:40.777Z,18.73
2023-04-19T07:21:08.542Z,19.30
2023-04-19T07:23:36.282Z,20.48
2023-04-19T07:26:04.095Z,19.88
2023-04-19T07:28:31.864Z,22.48
2023-04-19T07:31:01.014Z,21.85
2023-04-19T07:33:28.654Z,20.55
2023-04-19T07:35:57.056Z,18.92
2023-04-19T07:38:24.987Z,18.13
2023-04-19T07:40:52.794Z,20.23
2023-04-19T07:43:21.136Z,16.25
2023-04-19T07:45:49.243Z,19.20
2023-04-19T07:48:16.690Z,19.10
2023-04-19T07:50:44.316Z,20.42
2023-04-19T07:53:12.123Z,16.02
2023-04-19T07:55:39.700Z,20.08
2023-04-19T07:58:07.425Z,16.85
2023-04-19T08:00:36.760Z,21.23
2023-04-19T08:03:04.723Z,20.27
2023-04-19T08:05:33.038Z,17.75
2023-04-19T08:08:00.782Z,16.13
2023-04-19T08:10:30.431Z,16.00
2023-04-19T08:13:05.318Z,20.92
2023-04-19T08:18:05.849Z,18.67
2023-04-19T08:23:10.276Z,17.83
2023-04-19T08:25:41.983Z,19.13
2023-04-19T08:28:09.957Z,19.52
2023-04-19T08:30:37.513Z,18.50
2023-04-19T08:33:05.549Z,19.00
2023-04-19T08:35:36.133Z,18.30
2023-04-19T08:38:04.924Z,19.42
2023-04-19T08:40:33.271Z,18.15
2023-04-19T08:43:06.432Z,16.92
2023-04-19T08:45:34.558Z,19.10
2023-04-19T08:48:04.067Z,17.20
2023-04-19T08:50:38.804Z,19.98
2023-04-19T08:53:24.730Z,21.50
2023-04-19T08:56:12.852Z,19.33
2023-04-19T08:59:03.827Z,19.90
2023-04-19T09:06:39.652Z,19.70
2023-04-19T09:09:37.178Z,19.02
2023-04-19T09:12:18.532Z,20.95
2023-04-19T09:15:00.581Z,20.92
2023-04-19T09:17:31.848Z,20.52
2023-04-19T09:19:59.915Z,18.90
2023-04-19T09:27:34.935Z,15.07
2023-04-19T09:30:04.433Z,16.90
2023-04-19T09:32:47.612Z,14.32
2023-04-19T09:35:15.855Z,16.30
2023-04-19T09:40:24.856Z,15.73
2023-04-19T09:48:07.965Z,18.10
2023-04-19T09:50:50.324Z,15.68
2023-04-19T09:53:22.924Z,16.65
2023-04-19T09:56:00.201Z,16.40
2023-04-19T09:58:41.748Z,16.40
2023-04-19T10:01:19.035Z,15.23
2023-04-19T10:03:50.502Z,14.27
2023-04-19T10:08:53.538Z,16.65
2023-04-19T10:11:22.966Z,16.52
2023-04-19T10:13:53.853Z,13.82
2023-04-19T10:16:21.923Z,13.60
2023-04-19T10:18:50.857Z,14.90
2023-04-19T10:21:20.073Z,14.38
2023-04-19T10:23:48.192Z,16.05
2023-04-19T10:31:14.541Z,13.52
2023-04-19T10:33:42.544Z,14.38
2023-04-19T10:38:47.950Z,12.45
2023-04-19T10:41:18.217Z,13.13
2023-04-19T10:43:57.795Z,13.57
2023-04-19T10:46:26.127Z,13.85
2023-04-19T10:48:59.124Z,15.10
2023-04-19T10:51:38.853Z,12.95
2023-04-19T10:54:08.394Z,12.68
2023-04-19T10:56:35.957Z,12.90
2023-04-19T10:59:11.231Z,15.82
2023-04-19T11:02:09.001Z,15.30
2023-04-19T11:04:36.836Z,15.48
2023-04-19T11:09:39.520Z,13.45
2023-04-19T11:12:16.011Z,14.07
2023-04-19T11:14:46.364Z,14.27
2023-04-19T11:17:27.333Z,13.23
2023-04-19T11:20:00.302Z,14.40
2023-04-19T11:22:33.583Z,14.05
2023-04-19T11:25:17.406Z,12.50
2023-04-19T11:27:53.596Z,14.60
2023-04-19T11:32:56.922Z,15.52
2023-04-19T11:35:27.866Z,15.40
2023-04-19T11:37:56.922Z,13.63
2023-04-19T11:40:28.424Z,15.35
2023-04-19T11:43:00.625Z,11.32
2023-04-19T11:45:38.241Z,14.27
2023-04-19T11:48:16.312Z,14.10
2023-04-19T11:50:45.640Z,13.90
2023-04-19T11:53:17.331Z,13.60
2023-04-19T11:55:47.491Z,13.35
2023-04-19T11:58:29.068Z,14.25
2023-04-19T12:01:08.094Z,12.20
2023-04-19T12:03:45.956Z,15.27
2023-04-19T12:06:25.752Z,12.63
2023-04-19T12:08:54.849Z,13.60
2023-04-19T12:11:26.887Z,14.40
2023-04-19T12:14:10.336Z,13.63
2023-04-19T12:16:38.646Z,13.20
2023-04-19T12:19:18.085Z,14.23
2023-04-19T12:21:47.514Z,12.43
2023-04-19T12:24:17.118Z,13.23
2023-04-19T12:26:56.390Z,13.43
2023-04-19T12:29:24.287Z,14.30
2023-04-19T12:31:52.024Z,10.77
2023-04-19T12:34:19.718Z,11.80
2023-04-19T12:36:47.674Z,12.30
2023-04-19T12:39:15.607Z,12.27
2023-04-19T12:41:43.376Z,10.95
2023-04-19T12:44:11.032Z,10.55
2023-04-19T12:46:39.062Z,11.32
2023-04-19T12:49:06.697Z,11.77
2023-04-19T12:51:35.055Z,12.57
2023-04-19T12:54:02.664Z,10.68
2023-04-19T12:56:30.646Z,10.40
2023-04-19T13:01:25.834Z,10.77
2023-04-19T13:03:55.408Z,9.93
2023-04-19T13:06:25.020Z,12.27
2023-04-19T13:08:53.015Z,10.30
2023-04-19T13:11:23.708Z,10.80
2023-04-19T13:13:52.689Z,10.32
2023-04-19T13:16:21.010Z,10.52
2023-04-19T13:18:48.792Z,10.35
2023-04-19T13:21:16.790Z,10.82
2023-04-19T13:26:12.886Z,10.35
2023-04-19T13:28:42.279Z,8.95
2023-04-19T13:31:10.330Z,10.02
2023-04-19T13:33:38.231Z,7.28
2023-04-19T13:36:06.604Z,9.82
2023-04-19T13:38:34.413Z,9.93
2023-04-19T13:41:03.664Z,9.43
2023-04-19T13:43:31.543Z,9.82
2023-04-19T13:50:57.267Z,8.73
2023-04-19T13:53:26.598Z,8.70
2023-04-19T13:55:54.334Z,7.97
2023-04-19T13:58:22.044Z,9.80
2023-04-19T14:03:17.566Z,8.35
2023-04-19T14:05:45.544Z,8.50
2023-04-19T14:15:35.658Z,7.00
2023-04-19T14:18:03.338Z,7.55
2023-04-19T14:20:31.282Z,8.00
2023-04-19T14:23:00.389Z,7.38
2023-04-19T14:25:28.419Z,7.68
2023-04-19T14:27:56.021Z,7.63
2023-04-19T14:30:26.282Z,7.68
2023-04-19T14:32:54.035Z,7.68
2023-04-19T14:35:22.072Z,5.90
2023-04-19T14:37:49.626Z,7.22
2023-04-19T14:40:18.534Z,6.70
2023-04-19T14:42:46.098Z,6.35
2023-04-19T14:45:13.755Z,6.35
2023-04-19T14:47:41.596Z,6.20
2023-04-19T14:52:36.889Z,5.07
2023-04-19T14:55:04.924Z,5.70
2023-04-19T14:57:32.785Z,4.35
2023-04-19T15:02:29.348Z,4.45
2023-04-19T15:07:24.710Z,4.25
2023-04-19T15:09:52.515Z,4.57
2023-04-19T15:14:47.481Z,4.15
2023-04-19T15:22:11.294Z,3.60
2023-04-19T15:24:38.954Z,3.72
2023-04-19T15:27:06.886Z,3.65
2023-04-19T15:29:35.669Z,4.43
2023-04-19T15:32:04.665Z,3.45
2023-04-19T15:34:32.545Z,3.08
2023-04-19T15:37:02.625Z,3.65
2023-04-19T15:39:30.235Z,2.90
2023-04-19T15:41:58.896Z,2.72
2023-04-19T15:44:26.680Z,3.58
2023-04-19T15:46:54.462Z,3.78
2023-04-19T15:51:49.353Z,2.90
2023-04-19T15:54:16.867Z,3.13
2023-04-19T15:56:44.430Z,3.63
2023-04-19T15:59:11.967Z,2.90
2023-04-19T16:04:10.099Z,3.83
2023-04-19T16:06:37.831Z,2.80
2023-04-19T16:09:06.592Z,3.33
2023-04-19T16:11:34.286Z,2.10
2023-04-19T16:14:01.805Z,2.10
2023-04-19T16:16:33.016Z,2.08
2023-04-19T16:19:00.917Z,2.25
2023-04-19T16:23:56.603Z,2.22
2023-04-19T16:28:52.386Z,2.35
2023-04-19T16:31:20.203Z,2.08
2023-04-19T16:33:47.835Z,3.38
2023-04-19T16:36:15.589Z,2.28
2023-04-19T16:41:11.562Z,2.25
2023-04-19T16:43:39.281Z,2.20
2023-04-19T16:48:35.958Z,2.25
2023-04-19T16:51:03.855Z,2.13
2023-04-19T16:53:32.285Z,2.22
2023-04-19T16:56:00.425Z,2.45
2023-04-19T16:58:28.310Z,2.17
2023-04-19T17:00:57.033Z,2.10
2023-04-19T17:03:24.958Z,4.22
2023-04-19T17:05:52.610Z,2.25
2023-04-19T17:08:21.783Z,2.60
2023-04-19T17:10:49.516Z,3.08
2023-04-19T17:15:44.591Z,2.45
2023-04-19T17:18:12.312Z,2.65
2023-04-19T17:23:07.634Z,2.70
2023-04-19T17:30:30.590Z,2.90
2023-04-19T17:32:58.359Z,2.97
2023-04-19T17:35:26.239Z,3.30
2023-04-19T17:40:21.502Z,2.53
2023-04-19T17:47:44.983Z,3.40
2023-04-19T17:50:13.566Z,2.65
2023-04-19T17:52:41.302Z,3.67
2023-04-19T17:57:37.170Z,3.35
2023-04-19T18:02:38.532Z,2.80
2023-04-19T18:05:07.730Z,3.53
2023-04-19T18:07:41.548Z,2.80
2023-04-19T18:10:10.907Z,2.70
2023-04-19T18:12:38.622Z,3.67
2023-04-19T18:15:07.298Z,2.78
2023-04-19T18:17:36.338Z,2.65
2023-04-19T18:20:06.043Z,2.63
2023-04-19T18:22:33.880Z,3.30
2023-04-19T18:27:31.128Z,3.13
2023-04-19T18:32:55.125Z,3.17
2023-04-19T18:35:22.763Z,3.03
2023-04-19T18:37:50.391Z,3.13
2023-04-19T18:40:19.073Z,3.70
2023-04-19T18:42:46.906Z,3.25
2023-04-19T18:45:14.752Z,3.75
2023-04-19T18:47:42.740Z,3.40
2023-04-19T18:50:11.173Z,3.20
2023-04-19T18:52:38.870Z,2.63
2023-04-19T18:55:07.479Z,3.03
2023-04-19T18:57:35.380Z,2.97
2023-04-19T19:02:36.183Z,2.80
2023-04-19T19:05:07.345Z,3.33
2023-04-19T19:07:37.499Z,3.10
2023-04-19T19:12:39.753Z,2.60
2023-04-19T19:15:08.214Z,3.17
2023-04-19T19:17:35.923Z,3.45
2023-04-19T19:20:05.429Z,2.88
2023-04-19T19:22:34.028Z,3.42
2023-04-19T19:25:04.733Z,3.10
2023-04-19T19:27:32.446Z,3.00
2023-04-19T19:30:00.673Z,3.40
2023-04-19T19:32:30.378Z,3.38
2023-04-19T19:35:02.920Z,2.53
2023-04-19T19:37:33.250Z,3.40
2023-04-19T19:40:04.167Z,2.95
2023-04-19T19:42:33.968Z,2.95
2023-04-19T19:45:02.441Z,3.20
2023-04-19T19:47:33.005Z,3.33
2023-04-19T19:52:34.623Z,3.08
2023-04-19T19:58:18.616Z,3.78
2023-04-19T20:00:42.013Z,3.35
2023-04-19T20:03:07.189Z,3.25
2023-04-19T20:05:35.758Z,4.38
2023-04-19T20:08:09.931Z,3.60
2023-04-19T20:10:39.551Z,3.08
2023-04-19T20:13:07.461Z,3.03
2023-04-19T20:18:05.752Z,3.40
2023-04-19T20:20:33.553Z,3.50
2023-04-19T20:23:01.166Z,3.72
2023-04-19T20:25:31.203Z,2.38
2023-04-19T20:28:02.489Z,3.63
2023-04-19T20:30:31.541Z,3.30
2023-04-19T20:35:28.701Z,2.83
2023-04-19T20:38:02.870Z,3.17
2023-04-19T20:40:31.893Z,2.90
2023-04-19T20:42:59.493Z,3.20
2023-04-19T20:45:28.723Z,3.00
2023-04-19T20:47:59.940Z,2.97
2023-04-19T20:50:29.892Z,3.13
2023-04-19T20:53:08.288Z,2.40
2023-04-19T20:55:36.141Z,2.55
2023-04-19T20:58:04.640Z,1.65
2023-04-19T21:00:36.356Z,2.65
2023-04-19T21:03:05.283Z,2.28
2023-04-19T21:05:33.484Z,2.65
2023-04-19T21:08:01.692Z,2.70
2023-04-19T21:10:29.859Z,2.40
2023-04-19T21:15:24.875Z,3.10
2023-04-19T21:17:52.849Z,2.80
2023-04-19T21:22:51.017Z,2.72
2023-04-19T21:25:18.846Z,2.33
2023-04-19T21:27:46.450Z,3.20
2023-04-19T21:30:14.146Z,2.60
2023-04-19T21:32:42.253Z,3.03
2023-04-19T21:37:57.090Z,2.97
2023-04-19T21:40:25.036Z,3.10
2023-04-19T21:42:52.807Z,2.65
2023-04-19T21:45:20.836Z,3.00
2023-04-19T21:47:48.522Z,3.17
2023-04-19T21:50:16.979Z,3.45
2023-04-19T21:52:44.835Z,3.40
2023-04-19T21:55:12.756Z,2.67
2023-04-19T21:57:40.613Z,3.60
2023-04-19T22:00:11.723Z,3.38
2023-04-19T22:02:41.694Z,3.03
2023-04-19T22:10:09.162Z,2.92
2023-04-19T22:12:45.139Z,3.13
2023-04-19T22:15:19.340Z,3.15
2023-04-19T22:17:47.036Z,3.65
2023-04-19T22:20:14.868Z,3.15
2023-04-19T22:22:42.378Z,2.97
2023-04-19T22:25:10.257Z,3.15
2023-04-19T22:27:37.846Z,2.83
2023-04-19T22:30:06.546Z,2.55
2023-04-19T22:32:34.939Z,2.88
2023-04-19T22:37:29.800Z,3.55
2023-04-19T22:39:57.646Z,68.80
2023-04-19T22:42:25.588Z,3.70
2023-04-19T22:44:53.029Z,3.17
2023-04-19T22:47:21.217Z,3.65
2023-04-19T22:49:49.580Z,3.30
2023-04-19T22:52:17.705Z,3.88
2023-04-19T22:54:45.576Z,4.70
2023-04-19T22:57:13.164Z,3.67
2023-04-19T22:59:40.992Z,4.05
2023-04-19T23:02:08.964Z,3.50
2023-04-19T23:04:38.038Z,3.50
2023-04-19T23:07:06.258Z,3.67
2023-04-19T23:09:33.756Z,3.75
2023-04-19T23:12:01.271Z,3.20
2023-04-19T23:14:29.226Z,3.88
2023-04-19T23:16:57.614Z,3.75
2023-04-19T23:19:25.410Z,3.97
2023-04-19T23:21:52.993Z,3.38
2023-04-19T23:24:20.537Z,4.13
2023-04-19T23:26:48.513Z,4.47
2023-04-19T23:29:16.477Z,3.47
2023-04-19T23:31:44.546Z,4.40
2023-04-19T23:34:12.160Z,4.30
2023-04-19T23:36:39.768Z,4.30
2023-04-19T23:39:07.302Z,4.93
2023-04-19T23:41:34.906Z,4.50
2023-04-19T23:44:02.408Z,4.50
2023-04-19T23:46:30.073Z,5.07
2023-04-19T23:48:57.780Z,4.93
2023-04-19T23:51:25.316Z,5.05
2023-04-19T23:53:53.105Z,4.95
2023-04-19T23:56:21.245Z,5.20
